Time;durP1;ratioP1;P1;durP2;ratioP2;P2;SDS_P1;SDS_P2;PMS_P1;PMS_P2;Temp;Humidity;BMP_temperature;BMP_pressure;BME280_temperature;BME280_humidity;BME280_pressure;Samples;Min_cycle;Max_cycle;Signal;HPM_P1;HPM_P2
2023/04/29 08:14:16;;;;;;;17.90;6.50;;;;;;;;;;4730174;27;20245;-68
2023/04/29 08:16:43;;;;;;;16.20;7.00;;;;;;;;;;4959610;28;20090;-69
2023/04/29 08:19:10;;;;;;;14.20;6.88;;;;;;;;;;4970861;28;20078;-73
2023/04/29 08:21:36;;;;;;;16.45;7.18;;;;;;;;;;4964206;28;20072;-68
2023/04/29 08:24:04;;;;;;;17.50;7.70;;;;;;;;;;4949868;28;20078;-72
2023/04/29 08:26:31;;;;;;;17.50;7.63;;;;;;;;;;4960295;28;20152;-70
2023/04/29 08:28:57;;;;;;;14.23;7.35;;;;;;;;;;4972617;28;20068;-71
2023/04/29 08:31:26;;;;;;;18.95;7.10;;;;;;;;;;4966899;28;20062;-72
2023/04/29 08:33:57;;;;;;;14.27;6.30;;;;;;;;;;4969638;28;20053;-71
2023/04/29 08:36:24;;;;;;;18.73;7.55;;;;;;;;;;4928176;28;20062;-67
2023/04/29 08:38:53;;;;;;;19.65;6.75;;;;;;;;;;4968036;28;20051;-74
2023/04/29 08:41:22;;;;;;;16.55;7.55;;;;;;;;;;4968084;28;20070;-71
2023/04/29 08:43:51;;;;;;;14.63;7.25;;;;;;;;;;4953458;28;20077;-73
2023/04/29 08:46:19;;;;;;;16.80;7.03;;;;;;;;;;4948541;28;20058;-69
2023/04/29 08:48:47;;;;;;;17.02;7.50;;;;;;;;;;4975120;28;20475;-69
2023/04/29 08:51:20;;;;;;;14.43;6.60;;;;;;;;;;4974182;28;20062;-74
2023/04/29 08:53:46;;;;;;;16.88;7.45;;;;;;;;;;4969159;28;20065;-74
2023/04/29 08:56:15;;;;;;;16.02;7.15;;;;;;;;;;4969952;28;20062;-73
2023/04/29 08:58:53;;;;;;;18.52;7.43;;;;;;;;;;4974525;28;20070;-71
2023/04/29 09:01:20;;;;;;;17.67;7.05;;;;;;;;;;4968461;28;20122;-73
2023/04/29 09:03:51;;;;;;;17.80;7.28;;;;;;;;;;4964197;28;20065;-69
2023/04/29 09:06:20;;;;;;;19.40;7.70;;;;;;;;;;4957364;28;20062;-69
2023/04/29 09:08:47;;;;;;;19.52;7.10;;;;;;;;;;4981395;28;20055;-72
2023/04/29 09:11:14;;;;;;;17.92;6.28;;;;;;;;;;4965388;28;20069;-75
2023/04/29 09:13:50;;;;;;;13.70;6.15;;;;;;;;;;4975039;28;20058;-73
2023/04/29 09:16:16;;;;;;;13.93;6.13;;;;;;;;;;4920153;28;20059;-70
2023/04/29 09:18:47;;;;;;;17.13;7.00;;;;;;;;;;4937275;28;20058;-73
2023/04/29 09:21:20;;;;;;;15.00;7.40;;;;;;;;;;4948573;28;20063;-72
2023/04/29 09:23:50;;;;;;;16.48;7.05;;;;;;;;;;4929540;29;20235;-72
2023/04/29 09:26:16;;;;;;;15.20;6.57;;;;;;;;;;4923445;28;20105;-69
2023/04/29 09:28:44;;;;;;;16.83;6.80;;;;;;;;;;4958762;28;20087;-73
2023/04/29 09:31:10;;;;;;;12.80;6.55;;;;;;;;;;4959571;28;20082;-68
2023/04/29 09:33:50;;;;;;;13.35;6.22;;;;;;;;;;4954420;28;20078;-72
2023/04/29 09:36:34;;;;;;;13.13;7.15;;;;;;;;;;4943480;28;20043;-71
2023/04/29 09:39:02;;;;;;;14.55;6.60;;;;;;;;;;4961018;28;20058;-68
2023/04/29 09:41:29;;;;;;;18.83;6.45;;;;;;;;;;4953680;28;20051;-68
2023/04/29 09:44:05;;;;;;;12.55;6.43;;;;;;;;;;4960367;28;20059;-73
2023/04/29 09:46:35;;;;;;;11.80;5.80;;;;;;;;;;4928505;28;20046;-70
2023/04/29 09:49:03;;;;;;;14.32;5.38;;;;;;;;;;4942539;28;20070;-71
2023/04/29 09:51:32;;;;;;;14.45;6.07;;;;;;;;;;4929680;28;22168;-71
2023/04/29 09:54:00;;;;;;;14.23;6.20;;;;;;;;;;4931817;28;20059;-70
2023/04/29 09:56:29;;;;;;;13.80;5.55;;;;;;;;;;4956405;28;20084;-68
2023/04/29 09:58:56;;;;;;;12.05;5.72;;;;;;;;;;4959565;28;20078;-73
2023/04/29 10:01:22;;;;;;;12.57;5.82;;;;;;;;;;4959118;28;20388;-70
2023/04/29 10:03:59;;;;;;;13.90;5.50;;;;;;;;;;4960047;28;20051;-74
2023/04/29 10:06:28;;;;;;;11.90;5.25;;;;;;;;;;4959877;28;20082;-74
2023/04/29 10:08:56;;;;;;;11.73;5.18;;;;;;;;;;4961312;28;20070;-70
2023/04/29 10:11:26;;;;;;;13.93;5.32;;;;;;;;;;4957277;28;20059;-70
2023/04/29 10:13:55;;;;;;;12.38;5.55;;;;;;;;;;4955145;28;20130;-72
2023/04/29 10:16:27;;;;;;;11.60;5.72;;;;;;;;;;4931161;28;20082;-72
2023/04/29 10:18:55;;;;;;;12.02;5.80;;;;;;;;;;4937567;28;20134;-73
2023/04/29 10:21:27;;;;;;;11.25;5.25;;;;;;;;;;4938168;28;20074;-70
2023/04/29 10:23:56;;;;;;;11.82;5.88;;;;;;;;;;4937614;28;20055;-72
2023/04/29 10:26:27;;;;;;;12.13;5.80;;;;;;;;;;4916777;28;20063;-71
2023/04/29 10:28:54;;;;;;;9.48;4.97;;;;;;;;;;4946412;28;20055;-71
2023/04/29 10:31:21;;;;;;;12.07;5.80;;;;;;;;;;4937548;28;20058;-72
2023/04/29 10:33:49;;;;;;;11.02;5.10;;;;;;;;;;4933799;28;20134;-72
2023/04/29 10:36:18;;;;;;;11.88;5.40;;;;;;;;;;4895186;28;20055;-72
2023/04/29 10:38:50;;;;;;;10.55;4.60;;;;;;;;;;4923674;28;20059;-73
2023/04/29 10:41:24;;;;;;;15.60;4.57;;;;;;;;;;4940673;28;20058;-69
2023/04/29 10:43:54;;;;;;;10.93;4.95;;;;;;;;;;4950786;28;20051;-72
2023/04/29 10:46:22;;;;;;;9.95;4.82;;;;;;;;;;4950272;28;20066;-70
2023/04/29 10:48:50;;;;;;;8.85;4.68;;;;;;;;;;4935881;28;20113;-70
2023/04/29 10:51:28;;;;;;;10.57;5.20;;;;;;;;;;4939718;28;20061;-74
2023/04/29 10:53:59;;;;;;;9.65;4.68;;;;;;;;;;4936876;28;20055;-70
2023/04/29 10:56:44;;;;;;;9.77;4.60;;;;;;;;;;4916633;28;20047;-70
2023/04/29 10:59:17;;;;;;;8.68;4.38;;;;;;;;;;4935515;28;20059;-72
2023/04/29 11:01:48;;;;;;;10.57;4.63;;;;;;;;;;4933753;28;21043;-70
2023/04/29 11:04:15;;;;;;;9.65;4.93;;;;;;;;;;4934115;28;20059;-70
2023/04/29 11:06:47;;;;;;;8.82;4.78;;;;;;;;;;4940513;28;20118;-72
2023/04/29 11:09:22;;;;;;;10.23;4.63;;;;;;;;;;4963986;28;20487;-70
2023/04/29 11:11:56;;;;;;;12.60;5.15;;;;;;;;;;4956132;28;20058;-70
2023/04/29 11:14:35;;;;;;;11.77;4.82;;;;;;;;;;4958187;28;20155;-71
2023/04/29 11:17:02;;;;;;;11.25;5.20;;;;;;;;;;4926635;28;20058;-71
2023/04/29 11:19:45;;;;;;;9.52;4.78;;;;;;;;;;4953665;28;20059;-70
2023/04/29 11:22:12;;;;;;;8.77;4.50;;;;;;;;;;4958259;28;20055;-71
2023/04/29 11:24:54;;;;;;;8.45;4.38;;;;;;;;;;4945979;28;20120;-71
2023/04/29 11:27:24;;;;;;;11.90;4.07;;;;;;;;;;4934439;28;20158;-71
2023/04/29 11:29:57;;;;;;;11.50;4.78;;;;;;;;;;4937545;28;20344;-71
2023/04/29 11:32:24;;;;;;;8.90;4.22;;;;;;;;;;4934250;28;20088;-72
2023/04/29 11:34:51;;;;;;;12.15;4.47;;;;;;;;;;4939832;28;20070;-70
2023/04/29 11:37:23;;;;;;;8.50;4.07;;;;;;;;;;4956646;28;20101;-72
2023/04/29 11:39:51;;;;;;;9.30;4.57;;;;;;;;;;4957999;28;20178;-72
2023/04/29 11:42:21;;;;;;;10.95;4.60;;;;;;;;;;4956665;28;20094;-71
2023/04/29 11:44:51;;;;;;;9.80;5.07;;;;;;;;;;4941397;28;20065;-67
2023/04/29 11:47:20;;;;;;;11.90;5.07;;;;;;;;;;4969621;28;20059;-68
2023/04/29 11:49:46;;;;;;;10.23;4.70;;;;;;;;;;4955095;28;20374;-71
2023/04/29 11:52:13;;;;;;;11.75;4.97;;;;;;;;;;4954920;28;20074;-71
2023/04/29 11:54:41;;;;;;;11.35;4.70;;;;;;;;;;4957130;28;20054;-73
2023/04/29 11:57:10;;;;;;;14.02;7.05;;;;;;;;;;4935238;28;20086;-72
2023/04/29 11:59:37;;;;;;;14.70;6.47;;;;;;;;;;4935793;28;20289;-72
2023/04/29 12:02:08;;;;;;;16.88;6.20;;;;;;;;;;4939763;28;20144;-72
2023/04/29 12:04:44;;;;;;;16.08;6.60;;;;;;;;;;4930314;28;20069;-69
2023/04/29 12:07:13;;;;;;;12.07;5.95;;;;;;;;;;4931469;28;20063;-69
2023/04/29 12:09:43;;;;;;;12.25;5.13;;;;;;;;;;4970156;28;20058;-68
2023/04/29 12:12:12;;;;;;;12.82;5.15;;;;;;;;;;4942559;28;20066;-68
2023/04/29 12:14:43;;;;;;;9.95;5.03;;;;;;;;;;4947102;28;20101;-71
2023/04/29 12:17:09;;;;;;;12.82;5.38;;;;;;;;;;4962999;28;20080;-73
2023/04/29 12:19:39;;;;;;;9.65;5.00;;;;;;;;;;4950773;28;20199;-69
2023/04/29 12:22:11;;;;;;;11.93;5.28;;;;;;;;;;4956814;28;20065;-71
2023/04/29 12:24:38;;;;;;;12.88;5.00;;;;;;;;;;4950028;28;20058;-72
2023/04/29 12:27:07;;;;;;;10.23;4.65;;;;;;;;;;4941047;28;20078;-70
2023/04/29 12:29:39;;;;;;;8.98;4.50;;;;;;;;;;4927313;28;20059;-68
2023/04/29 12:32:07;;;;;;;8.93;4.22;;;;;;;;;;4939223;28;20062;-70
2023/04/29 12:34:34;;;;;;;9.90;4.88;;;;;;;;;;4935050;28;20066;-69
2023/04/29 12:37:02;;;;;;;8.02;4.13;;;;;;;;;;4949888;28;20254;-71
2023/04/29 12:39:29;;;;;;;10.40;4.57;;;;;;;;;;4930692;28;20149;-70
2023/04/29 12:42:02;;;;;;;10.18;4.22;;;;;;;;;;4953665;28;20059;-71
2023/04/29 12:44:35;;;;;;;8.23;3.90;;;;;;;;;;4935375;28;20058;-72
2023/04/29 12:47:06;;;;;;;9.85;4.35;;;;;;;;;;4945474;28;20154;-70
2023/04/29 12:49:34;;;;;;;10.52;4.60;;;;;;;;;;4937332;28;20060;-70
2023/04/29 12:52:02;;;;;;;13.18;4.57;;;;;;;;;;4951705;28;20109;-70
2023/04/29 12:54:35;;;;;;;9.48;4.28;;;;;;;;;;4946621;28;20051;-73
2023/04/29 12:57:02;;;;;;;8.98;3.83;;;;;;;;;;4955889;28;20086;-70
2023/04/29 12:59:39;;;;;;;;;;;;;;;;;;;;;
2023/04/29 13:02:06;;;;;;;9.32;3.90;;;;;;;;;;4943525;28;20106;-72
2023/04/29 13:04:41;;;;;;;7.78;3.90;;;;;;;;;;4928658;28;20047;-72
2023/04/29 13:07:30;;;;;;;7.47;4.00;;;;;;;;;;4934272;28;20063;-72
2023/04/29 13:10:12;;;;;;;11.57;3.90;;;;;;;;;;4938988;28;20146;-72
2023/04/29 13:12:41;;;;;;;7.70;3.63;;;;;;;;;;4941989;28;20051;-71
2023/04/29 13:15:12;;;;;;;7.68;3.65;;;;;;;;;;4919530;28;20055;-72
2023/04/29 13:17:55;;;;;;;9.45;3.47;;;;;;;;;;4955840;28;20081;-71
2023/04/29 13:20:25;;;;;;;9.75;3.90;;;;;;;;;;4956129;28;20053;-72
2023/04/29 13:22:52;;;;;;;8.27;3.35;;;;;;;;;;4960721;28;20055;-72
2023/04/29 13:25:31;;;;;;;8.57;3.55;;;;;;;;;;4922518;28;20591;-71
2023/04/29 13:28:01;;;;;;;11.20;5.03;;;;;;;;;;4911108;28;20062;-71
2023/04/29 13:30:28;;;;;;;16.17;6.30;;;;;;;;;;4936973;28;20134;-71
2023/04/29 13:33:00;;;;;;;13.23;5.80;;;;;;;;;;4945261;29;20106;-72
2023/04/29 13:35:38;;;;;;;;;;;;;;;;;;;;;
2023/04/29 13:38:17;;;;;;;10.55;4.53;;;;;;;;;;4896045;28;20367;-70
2023/04/29 13:40:57;;;;;;;;;;;;;;;;;;;;;
2023/04/29 13:46:53;;;;;;;;;;;;;;;;;;;;;
2023/04/29 13:49:34;;;;;;;8.63;3.40;;;;;;;;;;4940136;28;20062;-76
2023/04/29 13:56:07;;;;;;;;;;;;;;;;;;;;;
2023/04/29 14:02:12;;;;;;;6.90;3.17;;;;;;;;;;4898634;28;20248;-72
2023/04/29 14:05:01;;;;;;;9.07;4.28;;;;;;;;;;4963929;28;20070;-72
2023/04/29 14:07:56;;;;;;;12.45;4.38;;;;;;;;;;4887529;28;20555;-71
2023/04/29 14:11:00;;;;;;;8.05;3.72;;;;;;;;;;4924030;28;20058;-70
2023/04/29 14:13:52;;;;;;;9.77;4.47;;;;;;;;;;4934666;28;20087;-71
2023/04/29 14:16:44;;;;;;;;;;;;;;;;;;;;;
2023/04/29 14:19:41;;;;;;;7.80;3.75;;;;;;;;;;4912488;28;20067;-72
2023/04/29 14:22:51;;;;;;;8.63;4.53;;;;;;;;;;4942688;28;20077;-71
2023/04/29 14:28:56;;;;;;;;;;;;;;;;;;;;;
2023/04/29 14:56:57;;;;;;;12.15;4.70;;;;;;;;;;6157853;22;20034;-75
2023/04/29 14:59:41;;;;;;;12.25;5.85;;;;;;;;;;6128310;23;20033;-73
2023/04/29 15:02:48;;;;;;;;;;;;;;;;;;;;;
2023/04/29 16:21:26;;;;;;;10.05;3.95;;;;;;;;;;5037072;27;1389836;-71
2023/04/29 16:24:34;;;;;;;13.10;4.20;;;;;;;;;;5056306;28;20056;-74
2023/04/29 16:27:33;;;;;;;;;;;;;;;;;;;;;
2023/04/29 16:30:15;;;;;;;8.88;4.03;;;;;;;;;;4946683;28;20058;-75
2023/04/29 16:32:42;;;;;;;7.88;3.38;;;;;;;;;;4950863;28;20168;-74
2023/04/29 16:35:31;;;;;;;9.70;3.70;;;;;;;;;;4956723;28;20051;-75
2023/04/29 17:05:32;;;;;;;7.70;3.05;;;;;;;;;;6217404;22;20028;-72
2023/04/29 17:08:08;;;;;;;6.20;3.35;;;;;;;;;;6175408;23;20084;-75
2023/04/29 17:22:48;;;;;;;;;;;;;;;;;;;;;
2023/04/29 17:25:35;;;;;;;6.30;2.67;;;;;;;;;;5027059;28;20064;-76
2023/04/29 17:28:16;;;;;;;4.50;2.53;;;;;;;;;;5011455;28;20049;-75
2023/04/29 17:30:58;;;;;;;6.75;2.30;;;;;;;;;;4985705;28;20065;-74
2023/04/29 17:33:43;;;;;;;6.50;2.30;;;;;;;;;;4990512;28;20057;-74
2023/04/29 17:36:29;;;;;;;5.55;2.25;;;;;;;;;;5007054;28;20060;-75
2023/04/29 17:41:32;;;;;;;4.25;2.13;;;;;;;;;;4938004;28;20061;-75
2023/04/29 17:43:59;;;;;;;4.63;2.20;;;;;;;;;;4996203;28;20042;-74
2023/04/29 17:46:29;;;;;;;4.78;2.33;;;;;;;;;;4978114;28;20058;-75
2023/04/29 18:12:09;;;;;;;8.13;1.90;;;;;;;;;;5006732;27;20197;-73
2023/04/29 18:14:45;;;;;;;6.25;2.08;;;;;;;;;;4972586;28;20129;-74
2023/04/29 18:17:16;;;;;;;3.35;1.85;;;;;;;;;;4978179;28;20053;-76
2023/04/29 18:25:07;;;;;;;2.78;1.73;;;;;;;;;;4858844;29;20035;-75
2023/04/29 18:27:36;;;;;;;4.28;2.10;;;;;;;;;;4929217;28;20170;-77
2023/04/29 18:43:38;;;;;;;5.03;1.70;;;;;;;;;;4993413;27;20412;-70
2023/04/29 18:46:07;;;;;;;5.35;2.00;;;;;;;;;;5029250;28;20057;-73
2023/04/29 18:48:55;;;;;;;6.22;1.83;;;;;;;;;;5031474;28;20049;-73
2023/04/29 18:51:32;;;;;;;3.58;1.63;;;;;;;;;;4937277;28;20100;-73
2023/04/29 18:54:02;;;;;;;4.43;1.77;;;;;;;;;;4979763;28;20238;-76
2023/04/29 18:56:30;;;;;;;3.97;1.70;;;;;;;;;;4984483;28;20050;-73
2023/04/29 18:59:14;;;;;;;4.47;1.70;;;;;;;;;;4993850;28;20053;-77
2023/04/29 19:04:40;;;;;;;5.43;1.50;;;;;;;;;;4951274;28;20223;-72
2023/04/29 19:07:12;;;;;;;3.97;1.77;;;;;;;;;;4933180;28;20059;-73
2023/04/29 19:09:39;;;;;;;3.65;1.80;;;;;;;;;;4938493;28;20051;-75
2023/04/29 19:14:32;;;;;;;7.03;1.77;;;;;;;;;;4898482;29;20055;-75
2023/04/29 19:16:59;;;;;;;4.07;1.77;;;;;;;;;;4912379;29;20056;-76
2023/04/29 19:19:33;;;;;;;4.88;1.83;;;;;;;;;;4929289;28;20059;-77
2023/04/29 19:22:04;;;;;;;10.70;4.53;;;;;;;;;;4887139;28;20400;-76
2023/04/29 19:24:35;;;;;;;9.07;4.25;;;;;;;;;;4936275;28;20051;-74
2023/04/29 19:27:05;;;;;;;6.10;2.92;;;;;;;;;;4952965;28;20051;-74
2023/04/29 19:29:35;;;;;;;7.90;2.90;;;;;;;;;;4927012;28;20067;-74
2023/04/29 19:37:10;;;;;;;9.83;2.70;;;;;;;;;;4882954;28;20071;-75
2023/04/29 19:42:41;;;;;;;6.90;2.47;;;;;;;;;;5084294;27;20393;-74
2023/04/29 19:45:11;;;;;;;8.65;2.72;;;;;;;;;;5054817;28;20040;-71
2023/04/29 19:47:38;;;;;;;7.05;3.10;;;;;;;;;;5040748;27;20049;-75
2023/04/29 19:50:14;;;;;;;6.07;2.40;;;;;;;;;;5052446;28;20155;-74
2023/04/29 19:52:41;;;;;;;5.70;2.50;;;;;;;;;;5068824;28;20132;-74
2023/04/29 19:55:11;;;;;;;6.07;2.78;;;;;;;;;;5058623;28;20051;-71
2023/04/29 19:57:38;;;;;;;6.43;2.75;;;;;;;;;;5044883;28;20090;-74
2023/04/29 20:00:14;;;;;;;5.47;2.60;;;;;;;;;;5053012;28;20065;-72
2023/04/29 20:02:43;;;;;;;5.63;2.53;;;;;;;;;;5035616;28;20049;-72
2023/04/29 20:05:12;;;;;;;6.90;2.95;;;;;;;;;;5051532;28;20057;-74
2023/04/29 20:07:41;;;;;;;8.55;2.67;;;;;;;;;;5044676;28;20080;-69
2023/04/29 20:10:10;;;;;;;4.28;2.25;;;;;;;;;;5050741;28;20060;-72
2023/04/29 20:12:38;;;;;;;6.07;2.53;;;;;;;;;;5020008;28;20056;-73
2023/04/29 20:15:06;;;;;;;;;;;;;;;;;;5027130;28;20170;-73
2023/04/29 20:17:34;;;;;;;6.00;2.70;;;;;;;;;;5028104;28;19932;-71
2023/04/29 20:20:07;;;;;;;5.63;2.50;;;;;;;;;;5026807;28;20061;-75
2023/04/29 20:22:36;;;;;;;6.18;2.53;;;;;;;;;;5005538;28;20052;-70
2023/04/29 20:25:06;;;;;;;14.48;3.33;;;;;;;;;;5047743;28;20056;-70
2023/04/29 20:27:33;;;;;;;5.45;2.75;;;;;;;;;;5043759;28;20060;-71
2023/04/29 20:30:07;;;;;;;7.88;2.80;;;;;;;;;;5050546;28;20065;-73
2023/04/29 20:32:38;;;;;;;8.80;3.00;;;;;;;;;;5034897;28;20053;-72
2023/04/29 20:35:07;;;;;;;6.85;2.80;;;;;;;;;;5032201;28;20121;-71
2023/04/29 20:37:37;;;;;;;4.97;2.45;;;;;;;;;;5028002;28;20084;-70
2023/04/29 20:40:16;;;;;;;;;;;;;;;;;;;;;
2023/04/29 20:42:43;;;;;;;8.77;2.75;;;;;;;;;;4943909;28;20054;-71
2023/04/29 20:48:19;;;;;;;6.80;2.97;;;;;;;;;;4957905;28;20060;-72
2023/04/29 20:50:57;;;;;;;7.85;2.70;;;;;;;;;;4942725;28;20137;-70
2023/04/29 20:53:30;;;;;;;8.82;2.50;;;;;;;;;;4959283;28;20046;-72
2023/04/29 20:55:58;;;;;;;5.15;2.60;;;;;;;;;;4971909;28;20062;-73
2023/04/29 20:58:28;;;;;;;8.90;2.72;;;;;;;;;;4957568;28;20061;-72
2023/04/29 21:06:06;;;;;;;7.07;2.95;;;;;;;;;;5047503;27;20541;-73
2023/04/29 21:08:48;;;;;;;7.10;2.70;;;;;;;;;;5037163;28;20043;-73
2023/04/29 21:11:23;;;;;;;5.25;2.58;;;;;;;;;;4987514;28;20144;-72
2023/04/29 21:13:52;;;;;;;7.38;3.03;;;;;;;;;;4935185;28;20051;-72
2023/04/29 21:16:23;;;;;;;6.38;2.70;;;;;;;;;;4959208;28;20165;-74
2023/04/29 21:18:50;;;;;;;9.32;2.95;;;;;;;;;;4990758;28;20062;-71
2023/04/29 21:25:12;;;;;;;6.47;2.95;;;;;;;;;;5099326;27;20132;-74
2023/04/29 21:27:44;;;;;;;8.10;3.13;;;;;;;;;;5082990;27;20036;-69
2023/04/29 21:30:25;;;;;;;5.47;2.85;;;;;;;;;;5094473;28;20055;-74
2023/04/29 21:32:57;;;;;;;7.32;3.38;;;;;;;;;;5008573;28;20053;-74
2023/04/29 21:35:26;;;;;;;6.10;2.83;;;;;;;;;;4967937;28;20050;-73
2023/04/29 21:37:53;;;;;;;6.40;2.97;;;;;;;;;;4953519;28;20042;-72
2023/04/29 21:40:21;;;;;;;11.30;3.50;;;;;;;;;;4967034;28;20098;-78
2023/04/29 21:42:48;;;;;;;11.38;3.50;;;;;;;;;;4957567;28;20097;-76
2023/04/29 21:45:19;;;;;;;7.38;2.83;;;;;;;;;;4937653;28;20059;-74
2023/04/29 21:47:48;;;;;;;6.65;3.08;;;;;;;;;;4988931;28;20145;-77
2023/04/29 21:50:14;;;;;;;7.00;3.30;;;;;;;;;;5019860;28;20142;-74
2023/04/29 21:52:41;;;;;;;7.00;3.15;;;;;;;;;;5039594;28;20072;-72
2023/04/29 21:55:10;;;;;;;8.88;3.15;;;;;;;;;;5053209;28;20125;-72
2023/04/29 21:57:38;;;;;;;7.50;3.28;;;;;;;;;;5048322;28;20299;-78
2023/04/29 22:00:17;;;;;;;9.50;3.55;;;;;;;;;;5060377;28;20098;-71
2023/04/29 22:02:44;;;;;;;9.05;3.13;;;;;;;;;;5050103;28;20056;-71
2023/04/29 22:05:10;;;;;;;7.82;3.45;;;;;;;;;;5060298;28;20058;-75
2023/04/29 22:07:37;;;;;;;8.27;3.60;;;;;;;;;;5048790;28;20059;-73
2023/04/29 22:10:06;;;;;;;6.63;3.35;;;;;;;;;;5060590;28;20147;-75
2023/04/29 22:12:32;;;;;;;8.68;3.35;;;;;;;;;;5055924;28;20053;-71
2023/04/29 22:15:00;;;;;;;6.47;3.05;;;;;;;;;;5056815;28;20175;-69
2023/04/29 22:17:27;;;;;;;7.33;3.30;;;;;;;;;;5047039;28;20169;-69
2023/04/29 22:19:53;;;;;;;7.30;3.45;;;;;;;;;;5055599;28;20307;-70
2023/04/29 22:22:20;;;;;;;6.63;3.15;;;;;;;;;;5050490;28;20048;-73
2023/04/29 22:24:46;;;;;;;9.27;3.63;;;;;;;;;;5005539;28;20060;-70
2023/04/29 22:27:15;;;;;;;7.57;3.00;;;;;;;;;;4998448;28;20053;-74
2023/04/29 22:29:42;;;;;;;8.82;3.53;;;;;;;;;;4985625;28;21602;-72
2023/04/29 22:32:10;;;;;;;8.07;3.22;;;;;;;;;;4981736;28;20062;-71
2023/04/29 22:34:36;;;;;;;7.72;3.55;;;;;;;;;;4984508;28;20059;-69
2023/04/29 22:37:05;;;;;;;7.30;3.30;;;;;;;;;;4977172;28;20072;-73
2023/04/29 22:39:32;;;;;;;7.47;3.53;;;;;;;;;;4976737;28;20046;-76
2023/04/29 22:41:58;;;;;;;10.45;3.38;;;;;;;;;;4987216;28;20057;-67
2023/04/29 22:44:25;;;;;;;7.78;2.80;;;;;;;;;;4975826;28;20058;-70
2023/04/29 22:46:52;;;;;;;7.72;3.30;;;;;;;;;;4976790;28;20284;-74
2023/04/29 22:49:20;;;;;;;6.53;3.22;;;;;;;;;;4970808;28;20120;-76
2023/04/29 22:51:46;;;;;;;7.18;3.50;;;;;;;;;;4962322;28;20053;-70
2023/04/29 22:54:13;;;;;;;7.65;3.55;;;;;;;;;;4974218;28;20058;-74
2023/04/29 22:56:41;;;;;;;6.80;3.00;;;;;;;;;;4975778;28;20066;-70
2023/04/29 22:59:07;;;;;;;7.55;3.60;;;;;;;;;;4976927;28;20108;-75
2023/04/29 23:35:54;;;;;;;8.10;2.70;;;;;;;;;;5130262;27;20366;-74
2023/04/29 23:38:22;;;;;;;7.78;3.33;;;;;;;;;;5072042;28;20044;-73
2023/04/29 23:40:49;;;;;;;6.40;3.07;;;;;;;;;;5075753;28;20043;-74
2023/04/29 23:43:20;;;;;;;6.40;2.92;;;;;;;;;;5019587;28;20662;-73
2023/04/29 23:45:47;;;;;;;6.78;3.22;;;;;;;;;;5053703;28;20040;-73
2023/04/29 23:48:14;;;;;;;8.63;3.60;;;;;;;;;;5053950;28;20055;-74
2023/04/29 23:50:41;;;;;;;7.23;3.23;;;;;;;;;;5067821;28;20053;-73
2023/04/29 23:53:10;;;;;;;8.07;3.10;;;;;;;;;;5064364;28;20063;-74
2023/04/29 23:55:36;;;;;;;7.47;3.67;;;;;;;;;;5021496;28;20072;-74
2023/04/29 23:58:03;;;;;;;6.40;3.08;;;;;;;;;;5048982;28;20061;-71
